MZBZ/BZE METAR and TAF weather

Enter ICAO airport designator
Station Type Date Time Source
MZBZ METAR 2021/05/14 22:00 UTC NOAA

MZBZ 142200Z 09008KT 9999 FEW018 SCT040 29/24 A2994 Q1014 NOSIG RMK CB TOP-SW


Station Type Date Time Source
MZBZ Decoded METAR 2021/05/14 22:00 UTC NOAA

Belize / Phillip Goldston Intl. Airport, Belize (MZBZ) 17-32N 088-18W 5M
May 14, 2021 - 06:00 PM EDT / 2021.05.14 2200 UTC
Wind: from the E (090 degrees) at 9 MPH (8 KT):0
Visibility: greater than 7 mile(s):0
Sky conditions: partly cloudy
Weather: Cumulonimbus clouds observed
Temperature: 84 F (29 C)
Dew Point: 75 F (24 C)
Relative Humidity: 74%
Pressure (altimeter): 29.94 in. Hg (1013 hPa)
ob: MZBZ 142200Z 09008KT 9999 FEW018 SCT040 29/24 A2994 Q1014 NOSIG RMK CB TOP-SW
cycle: 22

Station Type Date Time Source
MZBZ TAF 2021/05/14 18:21 UTC NOAA

TAF MZBZ 141500Z 1418/1518 07007KT 9999 SCT023 PROB30
TEMPO 1418/1422 5000 SHRA BKN015

Example: see airport list